Time;durP1;ratioP1;P1;durP2;ratioP2;P2;SDS_P1;SDS_P2;PMS_P1;PMS_P2;Temp;Humidity;BMP_temperature;BMP_pressure;BME280_temperature;BME280_humidity;BME280_pressure;Samples;Min_cycle;Max_cycle;Signal;HPM_P1;HPM_P2
2023/01/03 00:01:24;;;;;;;5.97;3.20;;;11.20;96.90;;;;;;5073135;28;20024;-65
2023/01/03 00:03:51;;;;;;;8.48;3.63;;;11.10;97.00;;;;;;5072855;28;20150;-65
2023/01/03 00:06:20;;;;;;;9.02;3.85;;;11.10;97.20;;;;;;5072965;28;20461;-65
2023/01/03 00:08:46;;;;;;;6.85;4.00;;;11.10;97.10;;;;;;5073043;28;20031;-65
2023/01/03 00:11:17;;;;;;;6.18;3.35;;;11.20;97.10;;;;;;5072886;28;20028;-65
2023/01/03 00:13:43;;;;;;;7.28;3.80;;;11.00;97.00;;;;;;5072952;28;20035;-66
2023/01/03 00:16:16;;;;;;;11.27;4.00;;;10.80;97.20;;;;;;5072809;28;20036;-64
2023/01/03 00:18:42;;;;;;;6.28;3.65;;;10.70;97.50;;;;;;5072551;28;20027;-65
2023/01/03 00:21:07;;;;;;;8.63;3.58;;;10.60;97.40;;;;;;5071610;28;20025;-65
2023/01/03 00:23:33;;;;;;;5.93;3.47;;;10.60;97.40;;;;;;5071531;28;20025;-65
2023/01/03 00:25:58;;;;;;;5.00;3.58;;;10.50;97.50;;;;;;5071355;28;20024;-65
2023/01/03 00:28:24;;;;;;;7.05;3.60;;;10.50;97.60;;;;;;5072859;28;20093;-65
2023/01/03 00:30:49;;;;;;;7.68;3.80;;;10.50;97.50;;;;;;5072626;28;20029;-64
2023/01/03 00:33:15;;;;;;;7.25;3.80;;;10.50;97.50;;;;;;5072528;28;20430;-65
2023/01/03 00:35:40;;;;;;;7.63;3.53;;;10.40;97.60;;;;;;5072283;28;20493;-65
2023/01/03 00:38:06;;;;;;;7.07;3.88;;;10.40;97.60;;;;;;5072763;28;20470;-65
2023/01/03 00:40:32;;;;;;;7.53;3.75;;;10.40;97.80;;;;;;5072514;28;20020;-64
2023/01/03 00:45:41;;;;;;;7.95;4.00;;;10.40;97.70;;;;;;5072608;28;20128;-65
2023/01/03 00:48:07;;;;;;;5.50;4.05;;;10.40;97.70;;;;;;5072447;28;20434;-65
2023/01/03 00:50:36;;;;;;;6.35;4.05;;;10.30;97.60;;;;;;5071839;28;20397;-65
2023/01/03 00:53:01;;;;;;;8.38;4.18;;;10.30;97.70;;;;;;5072467;28;20020;-65
2023/01/03 00:55:27;;;;;;;10.75;4.25;;;10.30;97.70;;;;;;5072447;28;20029;-64
2023/01/03 00:57:52;;;;;;;9.38;4.25;;;10.30;97.70;;;;;;5072384;28;20040;-66
2023/01/03 01:00:18;;;;;;;7.45;4.88;;;10.30;97.70;;;;;;5072493;28;20377;-65
2023/01/03 01:02:43;;;;;;;9.23;4.55;;;10.30;97.80;;;;;;5071864;28;20477;-65
2023/01/03 01:05:09;;;;;;;10.95;5.75;;;10.20;97.80;;;;;;5072493;28;20466;-65
2023/01/03 01:07:34;;;;;;;8.02;5.22;;;10.20;97.80;;;;;;5072199;28;20035;-65
2023/01/03 01:10:00;;;;;;;8.30;4.72;;;10.20;97.90;;;;;;5072385;28;20020;-64
2023/01/03 01:12:26;;;;;;;8.25;4.88;;;10.20;97.90;;;;;;5072131;28;20028;-65
2023/01/03 01:14:51;;;;;;;8.15;4.53;;;10.10;97.90;;;;;;5072082;28;20025;-65
2023/01/03 01:17:17;;;;;;;7.95;4.28;;;10.10;97.90;;;;;;5072033;28;20086;-65
2023/01/03 01:19:43;;;;;;;8.43;5.45;;;10.10;97.90;;;;;;5072183;28;20056;-65
2023/01/03 01:22:09;;;;;;;6.18;4.65;;;10.10;97.90;;;;;;5072039;28;20020;-65
2023/01/03 01:24:35;;;;;;;6.93;5.20;;;10.10;98.00;;;;;;5072328;28;20453;-65
2023/01/03 01:27:01;;;;;;;9.25;5.18;;;10.10;98.10;;;;;;5072105;28;20112;-65
2023/01/03 01:29:26;;;;;;;9.50;4.65;;;10.10;98.20;;;;;;5071968;28;20036;-64
2023/01/03 01:31:52;;;;;;;10.52;4.75;;;10.10;98.10;;;;;;5071646;28;20059;-65
2023/01/03 01:34:18;;;;;;;9.45;5.95;;;10.10;98.30;;;;;;5072074;28;20029;-64
2023/01/03 01:36:45;;;;;;;12.50;5.57;;;10.00;98.30;;;;;;5071993;28;20036;-65
2023/01/03 01:39:13;;;;;;;12.25;5.53;;;10.00;98.40;;;;;;5072140;28;20032;-65
2023/01/03 01:44:59;;;;;;;8.98;4.75;;;10.10;98.30;;;;;;5072424;28;20024;-64
2023/01/03 01:48:00;;;;;;;7.32;4.95;;;10.00;98.40;;;;;;5071554;28;20101;-64
2023/01/03 01:50:28;;;;;;;8.93;5.13;;;10.00;98.40;;;;;;5072124;28;20104;-65
2023/01/03 01:53:02;;;;;;;8.80;4.82;;;10.00;98.50;;;;;;5071987;28;20036;-64
2023/01/03 01:55:53;;;;;;;7.85;4.85;;;10.10;98.60;;;;;;5066345;28;20032;-64
2023/01/03 01:58:21;;;;;;;8.80;4.43;;;10.10;98.50;;;;;;5057814;28;20064;-64
2023/01/03 02:00:46;;;;;;;10.05;4.50;;;10.00;98.50;;;;;;5049884;28;20025;-64
2023/01/03 02:03:12;;;;;;;9.32;4.30;;;10.00;98.60;;;;;;5051237;28;20051;-64
2023/01/03 02:05:45;;;;;;;8.93;4.70;;;9.90;98.80;;;;;;5055368;28;20086;-64
2023/01/03 02:08:10;;;;;;;8.50;4.90;;;9.90;98.80;;;;;;5055042;28;20053;-64
2023/01/03 02:10:39;;;;;;;10.90;4.72;;;9.90;98.90;;;;;;5055494;28;20110;-64
2023/01/03 02:13:30;;;;;;;7.72;5.03;;;9.90;98.90;;;;;;5055130;28;20044;-65
2023/01/03 02:16:02;;;;;;;8.27;5.13;;;9.90;98.80;;;;;;5054952;28;20037;-65
2023/01/03 02:18:45;;;;;;;12.10;4.70;;;9.90;99.00;;;;;;5055227;28;20444;-64
2023/01/03 02:21:29;;;;;;;6.45;4.35;;;9.90;98.90;;;;;;5055228;28;20029;-65
2023/01/03 02:24:45;;;;;;;10.05;4.88;;;9.90;99.00;;;;;;5055089;28;20056;-64
2023/01/03 02:27:14;;;;;;;9.27;5.10;;;9.90;99.10;;;;;;5013005;28;20091;-65
2023/01/03 02:30:05;;;;;;;7.82;4.93;;;9.90;99.20;;;;;;5012584;28;20056;-65
2023/01/03 02:32:52;;;;;;;9.50;4.45;;;9.90;99.20;;;;;;5011564;28;20045;-64
2023/01/03 02:35:29;;;;;;;8.48;4.97;;;9.90;99.30;;;;;;5054714;28;20037;-65
2023/01/03 02:38:06;;;;;;;6.47;5.15;;;9.90;99.40;;;;;;5054601;28;20033;-64
2023/01/03 02:40:48;;;;;;;11.40;5.35;;;9.90;99.40;;;;;;5054798;28;20028;-65
2023/01/03 02:43:42;;;;;;;10.40;5.23;;;9.80;99.40;;;;;;5054453;28;20024;-64
2023/01/03 02:46:30;;;;;;;8.38;5.22;;;9.70;99.50;;;;;;5053059;28;20279;-64
2023/01/03 02:49:14;;;;;;;7.72;5.30;;;9.80;99.60;;;;;;5054188;28;20031;-64
2023/01/03 02:52:00;;;;;;;8.38;5.47;;;9.80;99.70;;;;;;5053480;28;20033;-64
2023/01/03 02:54:55;;;;;;;11.93;5.97;;;9.70;99.70;;;;;;5054005;28;20037;-64
2023/01/03 02:57:41;;;;;;;11.68;6.15;;;9.70;99.60;;;;;;5053307;28;20060;-64
2023/01/03 03:00:15;;;;;;;9.73;5.63;;;9.70;99.90;;;;;;5054047;28;20520;-64
2023/01/03 03:02:48;;;;;;;8.80;6.22;;;9.70;99.90;;;;;;5054439;28;20033;-64
2023/01/03 03:05:20;;;;;;;9.57;6.00;;;9.70;99.90;;;;;;5053973;28;20478;-64
2023/01/03 03:07:46;;;;;;;7.20;5.60;;;9.60;99.90;;;;;;5054164;28;20112;-64
2023/01/03 03:13:12;;;;;;;8.23;5.65;;;9.60;99.90;;;;;;5053737;28;20585;-64
2023/01/03 03:15:44;;;;;;;7.15;5.55;;;9.60;99.90;;;;;;5053783;28;20159;-65
2023/01/03 03:18:17;;;;;;;8.98;5.60;;;9.60;99.80;;;;;;5054149;28;20031;-64
2023/01/03 03:26:24;;;;;;;8.73;6.10;;;9.60;99.90;;;;;;5052646;28;20032;-64
2023/01/03 03:28:55;;;;;;;9.02;6.32;;;9.60;99.90;;;;;;5053234;28;20025;-63
2023/01/03 03:31:39;;;;;;;8.10;6.07;;;9.50;99.90;;;;;;5053541;28;20036;-64
2023/01/03 03:34:14;;;;;;;12.05;6.30;;;9.50;99.90;;;;;;5053567;28;20037;-64
2023/01/03 03:37:13;;;;;;;10.18;5.95;;;9.50;99.90;;;;;;5053521;28;20064;-64
2023/01/03 03:45:51;;;;;;;10.35;5.50;;;9.40;99.90;;;;;;5053639;28;20394;-64
2023/01/03 03:48:27;;;;;;;12.00;6.30;;;9.50;99.90;;;;;;5053526;28;20432;-64
2023/01/03 03:50:56;;;;;;;7.70;6.15;;;9.50;99.90;;;;;;5053265;28;20036;-64
2023/01/03 03:53:26;;;;;;;7.95;5.97;;;9.50;99.90;;;;;;5053188;28;20032;-65
2023/01/03 03:56:05;;;;;;;8.57;5.50;;;9.50;99.90;;;;;;5052855;28;20115;-64
2023/01/03 03:58:40;;;;;;;8.52;5.43;;;9.60;99.90;;;;;;5053217;28;20108;-64
2023/01/03 04:01:09;;;;;;;8.35;5.65;;;9.50;99.90;;;;;;5053045;28;20051;-64
2023/01/03 04:03:36;;;;;;;9.52;6.07;;;9.60;99.90;;;;;;5053187;28;20030;-64
2023/01/03 04:06:26;;;;;;;7.20;5.30;;;9.70;99.90;;;;;;5053043;28;20025;-64
2023/01/03 04:08:52;;;;;;;7.07;5.30;;;9.70;99.90;;;;;;5042023;28;20025;-64
2023/01/03 04:11:17;;;;;;;7.40;5.82;;;9.70;99.90;;;;;;5052675;28;20021;-64
2023/01/03 04:13:43;;;;;;;7.30;5.13;;;9.60;99.90;;;;;;5053083;28;20060;-64
2023/01/03 04:16:08;;;;;;;10.45;6.30;;;9.70;99.90;;;;;;5052647;28;20087;-64
2023/01/03 04:18:34;;;;;;;6.82;5.32;;;9.70;99.90;;;;;;5053228;28;20100;-65
2023/01/03 04:20:59;;;;;;;6.28;4.78;;;9.70;99.90;;;;;;5052798;28;20115;-64
2023/01/03 04:23:25;;;;;;;12.70;6.00;;;9.80;99.90;;;;;;5052899;28;20025;-64
2023/01/03 04:25:51;;;;;;;8.15;5.70;;;10.00;99.90;;;;;;5051776;28;20056;-64
2023/01/03 04:28:17;;;;;;;8.63;5.63;;;9.90;99.90;;;;;;5053249;28;20032;-65
2023/01/03 04:30:44;;;;;;;7.78;5.57;;;10.00;99.90;;;;;;5052455;28;20065;-64
2023/01/03 04:33:09;;;;;;;8.45;5.38;;;10.10;99.90;;;;;;5052629;28;20493;-65
2023/01/03 04:35:35;;;;;;;8.95;5.90;;;10.00;99.90;;;;;;5052528;28;20025;-64
2023/01/03 04:38:01;;;;;;;7.55;5.47;;;9.90;99.90;;;;;;5051130;28;20484;-64
2023/01/03 04:40:27;;;;;;;9.10;5.55;;;10.00;99.90;;;;;;5052446;28;20474;-63
2023/01/03 04:45:37;;;;;;;6.72;5.40;;;9.90;99.90;;;;;;5052469;28;20055;-63
2023/01/03 04:48:03;;;;;;;9.13;5.18;;;9.90;99.90;;;;;;5052419;28;20102;-64
2023/01/03 04:50:30;;;;;;;6.07;4.53;;;9.90;99.90;;;;;;5052452;28;20065;-64
2023/01/03 04:52:55;;;;;;;6.47;4.82;;;10.00;99.90;;;;;;5052467;28;20107;-64
2023/01/03 04:55:21;;;;;;;7.50;4.63;;;10.00;99.90;;;;;;5052214;28;20442;-63
2023/01/03 04:57:47;;;;;;;7.63;5.10;;;10.00;99.90;;;;;;5052276;28;20486;-64
2023/01/03 05:00:13;;;;;;;6.95;5.13;;;10.00;99.90;;;;;;5052122;28;20107;-64
2023/01/03 05:02:39;;;;;;;6.60;5.15;;;10.00;99.90;;;;;;5052468;28;20508;-64
2023/01/03 05:05:05;;;;;;;6.68;5.28;;;10.10;99.90;;;;;;5052161;28;20025;-63
2023/01/03 05:07:30;;;;;;;10.02;5.57;;;10.10;99.90;;;;;;5051168;28;20091;-64
2023/01/03 05:09:56;;;;;;;7.75;5.28;;;10.10;99.90;;;;;;5052097;28;20029;-63
2023/01/03 05:12:21;;;;;;;6.38;5.30;;;10.20;99.90;;;;;;5052199;28;20430;-64
2023/01/03 05:14:47;;;;;;;7.85;5.00;;;10.10;99.90;;;;;;5052144;28;20355;-64
2023/01/03 05:17:13;;;;;;;7.38;5.10;;;10.10;99.90;;;;;;5052151;28;20437;-64
2023/01/03 05:25:48;;;;;;;7.43;5.15;;;10.10;99.90;;;;;;5052468;28;20025;-64
2023/01/03 05:27:54;;;;;;;5.75;5.15;;;10.10;99.90;;;;;;5052327;28;20516;-63
2023/01/03 05:30:20;;;;;;;5.88;5.28;;;10.20;99.90;;;;;;5052096;28;20505;-64
2023/01/03 05:32:45;;;;;;;7.97;5.00;;;10.20;99.90;;;;;;5052076;28;20025;-64
2023/01/03 05:35:11;;;;;;;7.70;5.60;;;10.40;99.90;;;;;;5051855;28;20041;-63
2023/01/03 05:37:36;;;;;;;9.60;5.82;;;10.50;99.90;;;;;;5053740;28;20033;-64
2023/01/03 05:40:02;;;;;;;6.80;5.55;;;10.40;99.90;;;;;;5056139;28;20048;-64
2023/01/03 05:42:27;;;;;;;7.22;5.13;;;10.40;99.90;;;;;;5055793;28;20474;-64
2023/01/03 05:44:53;;;;;;;5.22;4.22;;;10.70;99.90;;;;;;5055805;28;20021;-63
2023/01/03 05:47:19;;;;;;;10.05;5.85;;;11.10;99.90;;;;;;5055776;28;20058;-64
2023/01/03 05:49:44;;;;;;;5.95;4.88;;;11.00;99.90;;;;;;5056099;28;20021;-64
2023/01/03 05:52:10;;;;;;;5.78;4.57;;;11.10;99.90;;;;;;5055200;28;20039;-63
2023/01/03 05:54:35;;;;;;;6.63;4.72;;;11.30;99.90;;;;;;5055645;28;20027;-64
2023/01/03 05:57:01;;;;;;;7.90;5.70;;;11.30;99.70;;;;;;5055419;28;20040;-64
2023/01/03 05:59:27;;;;;;;9.70;6.80;;;11.30;99.60;;;;;;5055403;28;20061;-63
2023/01/03 06:01:52;;;;;;;7.82;4.68;;;11.20;99.40;;;;;;5062514;28;20107;-64
2023/01/03 06:04:18;;;;;;;6.75;3.92;;;11.50;99.50;;;;;;5058003;28;20389;-63
2023/01/03 06:06:44;;;;;;;3.90;2.95;;;11.60;99.60;;;;;;5053767;28;20517;-63
2023/01/03 06:09:10;;;;;;;6.03;4.70;;;11.70;99.60;;;;;;5054064;28;20117;-63
2023/01/03 06:11:35;;;;;;;5.53;4.28;;;11.70;99.50;;;;;;5054357;28;20021;-64
2023/01/03 06:14:01;;;;;;;5.10;3.63;;;11.70;99.90;;;;;;5053905;28;20040;-64
2023/01/03 06:19:11;;;;;;;8.55;5.57;;;11.60;99.60;;;;;;5054920;28;20052;-64
2023/01/03 06:21:36;;;;;;;9.23;6.25;;;11.70;99.90;;;;;;5055042;28;20386;-63
2023/01/03 06:24:02;;;;;;;6.90;4.63;;;11.70;99.70;;;;;;5054796;28;20421;-65
2023/01/03 06:26:28;;;;;;;6.65;4.38;;;11.80;99.80;;;;;;5055039;28;20021;-63
2023/01/03 06:28:54;;;;;;;6.75;5.03;;;11.90;99.80;;;;;;5054925;28;20079;-64
2023/01/03 06:31:19;;;;;;;8.48;6.18;;;11.80;99.90;;;;;;5054805;28;20150;-63
2023/01/03 06:33:45;;;;;;;7.03;4.22;;;11.70;99.70;;;;;;5054618;28;20102;-63
2023/01/03 06:36:13;;;;;;;8.00;4.82;;;12.00;99.90;;;;;;5054507;28;20577;-63
2023/01/03 06:38:39;;;;;;;10.85;5.78;;;12.00;99.90;;;;;;5054659;28;20014;-63
2023/01/03 06:41:05;;;;;;;5.05;3.85;;;11.90;99.90;;;;;;5054824;28;20078;-64
2023/01/03 06:43:31;;;;;;;5.38;4.13;;;12.00;99.90;;;;;;5054493;28;20021;-63
2023/01/03 06:54:34;;;;;;;4.50;3.40;;;12.00;99.90;;;;;;5074469;28;20376;-63
2023/01/03 06:56:59;;;;;;;4.75;3.58;;;12.10;99.90;;;;;;5074382;28;20103;-63
2023/01/03 06:59:25;;;;;;;6.80;3.75;;;12.20;99.90;;;;;;5074234;28;20107;-63
2023/01/03 07:01:52;;;;;;;5.63;3.47;;;12.20;99.90;;;;;;5073843;28;20032;-64
2023/01/03 07:04:18;;;;;;;4.00;3.40;;;12.20;99.90;;;;;;5073694;28;20090;-63
2023/01/03 07:06:44;;;;;;;7.70;4.43;;;12.20;99.90;;;;;;5074331;28;20031;-63
2023/01/03 07:09:11;;;;;;;5.13;3.67;;;12.30;99.90;;;;;;5073955;28;20028;-62
2023/01/03 07:11:37;;;;;;;6.93;4.90;;;12.30;99.90;;;;;;5074554;28;20020;-63
2023/01/03 07:14:05;;;;;;;5.97;3.90;;;12.30;99.90;;;;;;5074043;28;20078;-63
2023/01/03 07:16:38;;;;;;;7.50;4.93;;;12.30;99.90;;;;;;5073882;28;20481;-63
2023/01/03 07:19:06;;;;;;;5.45;4.22;;;12.30;99.90;;;;;;5073599;28;20035;-63
2023/01/03 07:21:33;;;;;;;5.15;3.80;;;12.30;99.90;;;;;;5073849;28;20228;-63
2023/01/03 07:24:01;;;;;;;6.10;5.05;;;12.40;99.90;;;;;;5073724;28;20035;-66
2023/01/03 07:26:29;;;;;;;6.65;4.55;;;12.30;99.90;;;;;;5073983;28;20021;-63
2023/01/03 07:28:55;;;;;;;8.35;5.60;;;12.30;99.90;;;;;;5073443;28;20020;-63
2023/01/03 07:31:21;;;;;;;10.35;5.93;;;12.30;99.90;;;;;;5070045;28;20043;-63
2023/01/03 07:33:46;;;;;;;7.47;6.45;;;12.30;99.90;;;;;;5070155;28;20032;-63
2023/01/03 07:36:14;;;;;;;9.23;5.90;;;12.30;99.90;;;;;;5072801;28;20042;-64
2023/01/03 07:38:41;;;;;;;14.73;9.27;;;12.20;99.90;;;;;;5073368;28;20024;-63
2023/01/03 07:41:08;;;;;;;11.10;7.82;;;12.00;99.90;;;;;;5073363;28;20524;-63
2023/01/03 07:43:38;;;;;;;10.35;6.88;;;12.00;99.90;;;;;;5073249;28;20048;-63
2023/01/03 07:46:24;;;;;;;9.20;8.15;;;12.00;99.90;;;;;;5071326;28;20027;-62
2023/01/03 07:48:52;;;;;;;8.30;5.97;;;12.10;99.90;;;;;;5066775;28;20028;-64
2023/01/03 07:51:19;;;;;;;8.50;5.88;;;12.10;99.90;;;;;;5072644;28;20024;-63
2023/01/03 07:53:48;;;;;;;12.82;8.52;;;12.30;99.90;;;;;;5073029;28;21470;-64
2023/01/03 07:56:15;;;;;;;12.25;9.25;;;12.20;99.90;;;;;;5073160;28;20473;-64
2023/01/03 07:58:42;;;;;;;14.10;11.10;;;12.00;99.90;;;;;;5070246;28;20021;-65
2023/01/03 08:01:11;;;;;;;16.42;8.65;;;11.60;99.90;;;;;;5057615;28;20056;-64
2023/01/03 08:03:37;;;;;;;13.75;9.32;;;12.00;99.90;;;;;;5062351;28;20465;-64
2023/01/03 08:06:05;;;;;;;12.18;7.05;;;12.10;99.90;;;;;;5062967;28;20024;-64
2023/01/03 08:08:31;;;;;;;12.18;8.10;;;12.20;99.90;;;;;;5056679;28;20501;-64
2023/01/03 08:13:41;;;;;;;14.55;8.70;;;12.30;99.90;;;;;;5062527;28;20027;-63
2023/01/03 08:16:10;;;;;;;8.25;5.57;;;12.20;99.90;;;;;;5071235;28;20048;-64
2023/01/03 08:18:37;;;;;;;18.48;8.57;;;12.40;99.90;;;;;;5068578;28;20385;-64
2023/01/03 08:21:02;;;;;;;13.45;9.25;;;12.50;99.90;;;;;;5072592;28;20024;-64
2023/01/03 08:23:28;;;;;;;18.65;10.52;;;12.60;99.90;;;;;;5072432;28;20023;-64
2023/01/03 08:26:05;;;;;;;16.85;9.82;;;12.60;99.90;;;;;;5071000;28;20074;-64
2023/01/03 08:28:31;;;;;;;14.85;8.38;;;12.70;99.90;;;;;;5071536;28;20040;-64
2023/01/03 08:30:58;;;;;;;13.10;6.93;;;12.60;99.90;;;;;;5072378;28;20029;-65
2023/01/03 08:33:25;;;;;;;11.32;8.23;;;12.70;99.90;;;;;;5072146;28;20039;-64
2023/01/03 08:35:59;;;;;;;23.45;7.00;;;12.70;99.90;;;;;;5071330;28;20187;-64
2023/01/03 08:38:30;;;;;;;9.35;5.75;;;12.70;99.90;;;;;;5071790;28;20039;-63
2023/01/03 08:40:58;;;;;;;14.73;8.00;;;12.80;99.90;;;;;;5067171;28;20478;-64
2023/01/03 08:43:24;;;;;;;14.52;8.50;;;12.80;99.90;;;;;;5052380;28;20031;-64
2023/01/03 08:45:50;;;;;;;16.88;7.75;;;12.90;99.90;;;;;;5070857;28;20016;-64
2023/01/03 08:48:20;;;;;;;15.18;8.88;;;12.90;99.90;;;;;;5072226;28;20473;-64
2023/01/03 08:50:46;;;;;;;13.35;8.48;;;13.00;99.70;;;;;;5071694;28;20414;-63
2023/01/03 08:53:11;;;;;;;12.55;8.45;;;13.00;99.50;;;;;;5065757;28;20025;-63
2023/01/03 08:55:37;;;;;;;15.68;7.78;;;13.00;99.40;;;;;;5065052;28;20043;-64
2023/01/03 08:58:02;;;;;;;16.50;8.48;;;13.10;99.40;;;;;;5067341;28;20032;-64
2023/01/03 09:00:28;;;;;;;16.50;10.10;;;13.10;99.30;;;;;;5071609;28;20043;-64
2023/01/03 09:02:58;;;;;;;13.88;10.43;;;13.00;99.30;;;;;;5072441;28;20017;-64
2023/01/03 09:05:24;;;;;;;18.65;10.18;;;13.10;99.10;;;;;;5072556;28;20400;-64
2023/01/03 09:07:49;;;;;;;16.30;10.73;;;13.10;98.80;;;;;;5072094;28;20100;-64
2023/01/03 09:10:15;;;;;;;21.23;9.77;;;13.10;98.60;;;;;;5072180;28;20099;-64
2023/01/03 09:12:40;;;;;;;17.88;9.70;;;13.10;98.50;;;;;;5072607;28;20025;-64
2023/01/03 09:15:06;;;;;;;15.95;9.90;;;13.20;98.40;;;;;;5075342;28;20060;-64
2023/01/03 09:17:32;;;;;;;11.48;7.22;;;13.00;98.60;;;;;;5073779;28;20040;-65
2023/01/03 09:19:58;;;;;;;14.93;7.13;;;13.10;98.90;;;;;;5076767;28;20028;-65
2023/01/03 09:22:23;;;;;;;13.55;7.20;;;13.20;99.20;;;;;;5076062;28;20032;-65
2023/01/03 09:24:49;;;;;;;8.32;5.88;;;13.20;99.40;;;;;;5076151;28;20032;-64
2023/01/03 09:27:14;;;;;;;8.45;5.03;;;13.20;99.70;;;;;;5069580;28;20017;-63
2023/01/03 09:29:40;;;;;;;11.27;4.50;;;13.30;99.90;;;;;;5071555;28;20027;-64
2023/01/03 09:32:05;;;;;;;10.60;5.85;;;13.40;99.90;;;;;;5075980;28;20123;-63
2023/01/03 09:34:31;;;;;;;12.40;5.28;;;13.40;99.90;;;;;;5076142;28;20040;-65
2023/01/03 09:36:56;;;;;;;11.35;5.82;;;13.40;99.90;;;;;;5075465;28;20033;-65
2023/01/03 09:39:22;;;;;;;8.05;4.55;;;13.30;99.90;;;;;;5076056;28;20031;-64
2023/01/03 09:43:11;;;;;;;10.27;4.22;;;13.30;99.90;;;;;;5075549;28;20020;-64
2023/01/03 09:44:33;;;;;;;10.77;4.65;;;13.40;99.90;;;;;;5075101;28;20028;-64
2023/01/03 09:46:59;;;;;;;7.63;3.95;;;13.30;99.90;;;;;;5073565;28;20024;-64
2023/01/03 09:49:24;;;;;;;10.27;4.43;;;13.40;99.90;;;;;;5073646;28;20024;-65
2023/01/03 10:05:56;;;;;;;6.18;3.63;;;13.50;99.70;;;;;;5071553;28;20507;-64
2023/01/03 10:08:40;;;;;;;9.00;3.70;;;13.50;99.70;;;;;;5073276;28;20021;-64
2023/01/03 10:11:24;;;;;;;5.75;3.58;;;13.50;99.70;;;;;;5075004;28;20036;-64
2023/01/03 10:14:20;;;;;;;5.63;3.28;;;13.60;99.70;;;;;;5074894;28;20130;-64
2023/01/03 10:17:10;;;;;;;7.28;4.00;;;13.60;99.70;;;;;;5073029;28;20032;-64
2023/01/03 10:20:06;;;;;;;8.77;3.60;;;13.60;99.60;;;;;;5074504;28;20139;-64
2023/01/03 10:22:32;;;;;;;6.75;2.90;;;13.60;99.60;;;;;;5074265;28;20032;-65
2023/01/03 10:25:04;;;;;;;3.78;2.42;;;13.70;99.50;;;;;;5073429;28;20109;-64
2023/01/03 10:27:36;;;;;;;8.18;3.15;;;13.70;99.40;;;;;;5060048;28;20017;-64
2023/01/03 10:30:04;;;;;;;;;;;13.70;99.30;;;;;;5075165;28;20033;-64
2023/01/03 10:33:03;;;;;;;6.88;2.70;;;13.70;99.10;;;;;;5074906;28;19920;-65
2023/01/03 10:35:32;;;;;;;8.40;2.92;;;13.80;99.10;;;;;;5074742;28;20040;-64
2023/01/03 10:37:58;;;;;;;11.18;3.28;;;13.80;99.10;;;;;;5070923;28;20021;-64
2023/01/03 10:40:38;;;;;;;14.50;3.17;;;13.70;99.00;;;;;;5072570;28;20103;-64
2023/01/03 10:43:31;;;;;;;14.90;3.53;;;13.80;99.00;;;;;;5056438;28;20032;-64
2023/01/03 10:46:02;;;;;;;16.30;3.17;;;13.80;99.00;;;;;;5053436;28;20386;-65
2023/01/03 10:48:39;;;;;;;14.50;3.03;;;13.90;99.20;;;;;;5074066;28;20056;-65
2023/01/03 10:51:25;;;;;;;14.13;3.17;;;14.10;99.10;;;;;;5074188;28;20017;-64
2023/01/03 10:53:54;;;;;;;8.02;2.67;;;14.20;99.00;;;;;;5073541;28;20501;-65
2023/01/03 10:56:21;;;;;;;7.97;2.33;;;14.10;98.70;;;;;;5073615;28;20032;-65
2023/01/03 10:58:49;;;;;;;5.93;2.15;;;14.00;98.80;;;;;;5074014;28;20492;-64
2023/01/03 11:01:23;;;;;;;7.07;2.22;;;14.10;98.90;;;;;;5074166;28;20400;-64
2023/01/03 11:04:05;;;;;;;11.20;2.17;;;14.10;98.80;;;;;;5073850;28;20032;-65
2023/01/03 11:06:32;;;;;;;8.00;1.83;;;14.20;98.70;;;;;;5074268;28;20020;-64
2023/01/03 11:09:02;;;;;;;9.75;2.13;;;14.20;98.70;;;;;;5071551;28;20051;-64
2023/01/03 11:11:38;;;;;;;5.78;2.05;;;14.20;98.50;;;;;;5073066;28;20470;-66
2023/01/03 11:14:26;;;;;;;4.72;1.80;;;14.20;98.60;;;;;;5073661;28;20106;-64
2023/01/03 11:17:03;;;;;;;3.40;1.75;;;14.30;98.60;;;;;;5072138;28;20048;-66
2023/01/03 11:19:31;;;;;;;5.75;2.10;;;14.30;98.50;;;;;;5071492;28;20028;-65
2023/01/03 11:22:20;;;;;;;4.38;1.80;;;14.20;98.40;;;;;;5073930;28;20385;-64
2023/01/03 11:25:20;;;;;;;6.72;1.98;;;14.30;98.60;;;;;;5072460;28;20032;-65
2023/01/03 11:28:23;;;;;;;7.65;1.60;;;14.30;98.40;;;;;;5073685;28;20384;-65
2023/01/03 11:31:27;;;;;;;5.68;1.73;;;14.40;98.50;;;;;;5072693;28;20103;-65
2023/01/03 11:34:29;;;;;;;5.00;2.13;;;14.40;98.30;;;;;;5073979;28;20036;-65
2023/01/03 11:37:22;;;;;;;5.18;1.95;;;14.40;98.30;;;;;;5066016;28;20036;-65
2023/01/03 11:40:07;;;;;;;5.18;1.75;;;14.40;98.10;;;;;;5047381;28;20041;-66
2023/01/03 11:43:16;;;;;;;4.15;1.90;;;14.50;98.00;;;;;;5063310;28;20059;-66
2023/01/03 11:46:12;;;;;;;3.17;1.63;;;14.50;97.90;;;;;;5029577;28;20036;-64
2023/01/03 11:48:56;;;;;;;7.85;2.47;;;14.60;97.60;;;;;;5066160;28;20503;-67
2023/01/03 11:51:37;;;;;;;5.95;2.30;;;14.50;97.40;;;;;;5068662;28;20071;-64
2023/01/03 11:54:10;;;;;;;4.70;1.80;;;14.60;97.30;;;;;;5061742;28;20037;-65
2023/01/03 11:56:43;;;;;;;7.57;2.35;;;14.60;97.10;;;;;;5069000;28;20079;-65
2023/01/03 11:59:38;;;;;;;7.07;1.90;;;14.60;97.10;;;;;;5071686;28;20035;-64
2023/01/03 12:02:17;;;;;;;6.20;1.70;;;14.60;97.10;;;;;;5055865;28;20040;-66
2023/01/03 12:05:02;;;;;;;6.20;1.95;;;14.80;96.90;;;;;;5064175;28;20032;-65
2023/01/03 12:08:01;;;;;;;7.88;2.10;;;14.90;96.80;;;;;;5072926;28;20021;-65
2023/01/03 12:10:46;;;;;;;7.47;1.58;;;14.80;96.80;;;;;;5072311;28;20032;-65
2023/01/03 12:13:39;;;;;;;6.88;1.92;;;14.90;96.70;;;;;;5071646;28;20500;-65
2023/01/03 12:16:11;;;;;;;4.85;1.52;;;14.80;96.60;;;;;;5071405;28;20107;-64
2023/01/03 12:18:55;;;;;;;;;;;14.80;96.60;;;;;;5071136;28;20465;-65
2023/01/03 12:21:27;;;;;;;4.68;1.90;;;14.90;96.50;;;;;;5069024;28;19909;-64
2023/01/03 12:24:04;;;;;;;8.25;1.50;;;15.00;96.40;;;;;;5063681;28;20028;-65
2023/01/03 12:26:32;;;;;;;5.57;1.80;;;15.00;96.40;;;;;;5062310;28;20028;-66
2023/01/03 12:28:58;;;;;;;11.93;1.98;;;15.00;96.40;;;;;;5070980;28;20070;-65
2023/01/03 12:31:34;;;;;;;7.50;1.63;;;15.00;96.40;;;;;;5072027;28;20090;-65
2023/01/03 12:34:43;;;;;;;8.52;2.00;;;15.10;96.30;;;;;;5072100;28;20554;-66
2023/01/03 12:37:22;;;;;;;7.50;1.90;;;15.10;96.10;;;;;;5070586;28;20088;-65
2023/01/03 12:40:00;;;;;;;5.45;1.80;;;15.10;96.10;;;;;;5063129;28;20450;-66
2023/01/03 12:42:32;;;;;;;7.80;1.60;;;15.20;96.00;;;;;;5071872;28;20024;-66
2023/01/03 12:45:06;;;;;;;6.05;1.60;;;15.20;96.00;;;;;;5062746;28;20478;-65
2023/01/03 12:47:52;;;;;;;5.65;1.52;;;15.30;96.10;;;;;;5071034;28;20505;-67
2023/01/03 12:50:41;;;;;;;8.15;1.80;;;15.30;95.90;;;;;;5071976;28;20024;-70
2023/01/03 12:53:21;;;;;;;6.43;1.95;;;15.20;96.30;;;;;;5071560;28;20029;-68
2023/01/03 12:56:12;;;;;;;7.10;1.80;;;15.30;96.00;;;;;;5071766;28;20048;-70
2023/01/03 12:58:37;;;;;;;4.03;1.55;;;15.30;95.90;;;;;;5069293;28;20085;-65
2023/01/03 13:01:16;;;;;;;4.50;1.40;;;15.40;95.80;;;;;;5070254;28;20033;-68
2023/01/03 13:03:51;;;;;;;6.63;2.15;;;15.40;95.90;;;;;;5069399;28;20028;-66
2023/01/03 13:06:24;;;;;;;8.35;1.83;;;15.40;95.90;;;;;;5069017;28;20047;-63
2023/01/03 13:09:03;;;;;;;12.60;2.10;;;15.40;95.90;;;;;;5068208;28;20029;-63
2023/01/03 13:11:47;;;;;;;8.63;1.95;;;15.30;95.90;;;;;;5066631;28;20096;-65
2023/01/03 13:14:19;;;;;;;5.32;1.30;;;15.30;95.90;;;;;;5069146;28;20154;-63
2023/01/03 13:16:47;;;;;;;7.68;1.85;;;15.30;95.90;;;;;;5069181;28;20036;-65
2023/01/03 13:19:19;;;;;;;9.70;1.92;;;15.40;95.40;;;;;;5072271;28;20377;-64
2023/01/03 13:21:53;;;;;;;4.47;1.70;;;15.40;95.00;;;;;;5065354;28;20044;-66
2023/01/03 13:24:38;;;;;;;7.93;2.17;;;15.50;94.90;;;;;;5071875;28;20036;-65
2023/01/03 13:27:19;;;;;;;8.82;2.78;;;15.40;94.70;;;;;;5059790;28;20450;-63
2023/01/03 13:29:48;;;;;;;8.75;2.70;;;15.50;94.20;;;;;;5070748;28;20085;-63
2023/01/03 13:32:14;;;;;;;12.93;2.45;;;15.40;94.10;;;;;;5071027;28;20068;-63
2023/01/03 13:34:39;;;;;;;7.75;1.77;;;15.40;94.30;;;;;;5072137;28;20125;-63
2023/01/03 13:37:05;;;;;;;10.50;2.25;;;15.40;94.40;;;;;;5071363;28;20037;-63
2023/01/03 13:39:39;;;;;;;10.20;3.17;;;15.50;94.40;;;;;;5069979;28;20020;-63
2023/01/03 13:42:05;;;;;;;7.00;2.10;;;15.50;94.50;;;;;;5070601;28;20109;-63
2023/01/03 13:44:31;;;;;;;9.00;2.58;;;15.50;94.50;;;;;;5071406;28;20478;-62
2023/01/03 13:46:57;;;;;;;6.95;2.15;;;15.50;94.40;;;;;;5066439;28;20029;-62
2023/01/03 13:49:26;;;;;;;5.45;1.50;;;15.60;94.60;;;;;;5068112;28;20020;-64
2023/01/03 13:51:53;;;;;;;6.10;1.42;;;15.70;94.50;;;;;;5071471;28;20043;-63
2023/01/03 13:54:18;;;;;;;6.93;1.98;;;15.60;94.40;;;;;;5071302;28;20078;-63
2023/01/03 13:56:44;;;;;;;7.68;2.08;;;15.70;94.40;;;;;;5071670;28;20044;-63
2023/01/03 13:59:16;;;;;;;6.40;1.85;;;15.70;94.40;;;;;;5074702;28;20017;-63
2023/01/03 14:01:48;;;;;;;5.90;1.42;;;15.70;94.80;;;;;;5074648;28;20028;-63
2023/01/03 14:04:34;;;;;;;5.10;1.45;;;15.70;94.40;;;;;;5074135;28;20067;-62
2023/01/03 14:07:20;;;;;;;7.50;1.90;;;15.70;94.40;;;;;;5074946;28;20032;-62